sensor_id;sensor_type;location;lat;lon;timestamp;pressure;altitude;pressure_sealevel;temperature;humidity
56681;BME280;42558;52.388;13.390;2023-08-21T00:00:16;101706.67;;;20.23;100.00
56681;BME280;42558;52.388;13.390;2023-08-21T00:02:44;101702.73;;;20.24;100.00
56681;BME280;42558;52.388;13.390;2023-08-21T00:05:12;101702.39;;;20.23;100.00
56681;BME280;42558;52.388;13.390;2023-08-21T00:07:41;101698.15;;;20.18;100.00
56681;BME280;42558;52.388;13.390;2023-08-21T00:10:09;101701.77;;;20.15;100.00
56681;BME280;42558;52.388;13.390;2023-08-21T00:12:38;101695.63;;;20.04;100.00
56681;BME280;42558;52.388;13.390;2023-08-21T00:15:07;101698.17;;;19.99;100.00
56681;BME280;42558;52.388;13.390;2023-08-21T00:17:38;101698.77;;;19.95;100.00
56681;BME280;42558;52.388;13.390;2023-08-21T00:20:11;101695.23;;;19.91;100.00
56681;BME280;42558;52.388;13.390;2023-08-21T00:22:43;101700.77;;;19.89;100.00
56681;BME280;42558;52.388;13.390;2023-08-21T00:25:10;101694.56;;;19.87;100.00
56681;BME280;42558;52.388;13.390;2023-08-21T00:27:40;101696.02;;;19.83;100.00
56681;BME280;42558;52.388;13.390;2023-08-21T00:30:11;101697.27;;;19.83;100.00
56681;BME280;42558;52.388;13.390;2023-08-21T00:32:41;101700.85;;;19.82;100.00
56681;BME280;42558;52.388;13.390;2023-08-21T00:35:10;101700.92;;;19.75;100.00
56681;BME280;42558;52.388;13.390;2023-08-21T00:37:40;101700.10;;;19.66;100.00
56681;BME280;42558;52.388;13.390;2023-08-21T00:40:11;101697.65;;;19.61;100.00
56681;BME280;42558;52.388;13.390;2023-08-21T00:42:41;101697.99;;;19.63;100.00
56681;BME280;42558;52.388;13.390;2023-08-21T00:45:10;101695.88;;;19.57;100.00
56681;BME280;42558;52.388;13.390;2023-08-21T00:47:42;101701.05;;;19.57;100.00
56681;BME280;42558;52.388;13.390;2023-08-21T00:50:12;101698.93;;;19.54;100.00
56681;BME280;42558;52.388;13.390;2023-08-21T00:52:46;101695.02;;;19.52;100.00
56681;BME280;42558;52.388;13.390;2023-08-21T00:55:17;101695.06;;;19.48;100.00
56681;BME280;42558;52.388;13.390;2023-08-21T00:57:47;101693.65;;;19.44;100.00
56681;BME280;42558;52.388;13.390;2023-08-21T01:00:17;101692.55;;;19.49;100.00
56681;BME280;42558;52.388;13.390;2023-08-21T01:02:47;101693.43;;;19.50;100.00
56681;BME280;42558;52.388;13.390;2023-08-21T01:05:18;101700.74;;;19.50;100.00
56681;BME280;42558;52.388;13.390;2023-08-21T01:08:14;101703.43;;;19.48;100.00
56681;BME280;42558;52.388;13.390;2023-08-21T01:10:54;101708.23;;;19.50;100.00
56681;BME280;42558;52.388;13.390;2023-08-21T01:16:53;101705.80;;;19.40;100.00
56681;BME280;42558;52.388;13.390;2023-08-21T01:19:37;101703.63;;;19.45;100.00
56681;BME280;42558;52.388;13.390;2023-08-21T01:22:09;101701.84;;;19.47;100.00
56681;BME280;42558;52.388;13.390;2023-08-21T01:24:39;101700.41;;;19.48;100.00
56681;BME280;42558;52.388;13.390;2023-08-21T01:27:12;101698.81;;;19.48;100.00
56681;BME280;42558;52.388;13.390;2023-08-21T01:29:43;101699.35;;;19.45;100.00
56681;BME280;42558;52.388;13.390;2023-08-21T01:32:41;101701.31;;;19.44;100.00
56681;BME280;42558;52.388;13.390;2023-08-21T01:35:13;101693.45;;;19.49;100.00
56681;BME280;42558;52.388;13.390;2023-08-21T01:37:44;101687.89;;;19.50;100.00
56681;BME280;42558;52.388;13.390;2023-08-21T01:40:24;101687.35;;;19.52;100.00
56681;BME280;42558;52.388;13.390;2023-08-21T01:42:55;101684.14;;;19.53;100.00
56681;BME280;42558;52.388;13.390;2023-08-21T01:45:23;101686.27;;;19.53;100.00
56681;BME280;42558;52.388;13.390;2023-08-21T01:47:51;101683.59;;;19.55;100.00
56681;BME280;42558;52.388;13.390;2023-08-21T01:50:20;101683.04;;;19.59;100.00
56681;BME280;42558;52.388;13.390;2023-08-21T01:52:48;101684.41;;;19.65;100.00
56681;BME280;42558;52.388;13.390;2023-08-21T01:55:16;101687.60;;;19.68;100.00
56681;BME280;42558;52.388;13.390;2023-08-21T01:57:45;101689.52;;;19.71;100.00
56681;BME280;42558;52.388;13.390;2023-08-21T02:00:14;101688.83;;;19.70;100.00
56681;BME280;42558;52.388;13.390;2023-08-21T02:02:42;101686.33;;;19.69;100.00
56681;BME280;42558;52.388;13.390;2023-08-21T02:05:10;101688.46;;;19.70;100.00
56681;BME280;42558;52.388;13.390;2023-08-21T02:07:39;101686.16;;;19.69;100.00
56681;BME280;42558;52.388;13.390;2023-08-21T02:10:08;101681.52;;;19.69;100.00
56681;BME280;42558;52.388;13.390;2023-08-21T02:12:35;101680.27;;;19.69;100.00
56681;BME280;42558;52.388;13.390;2023-08-21T02:15:09;101675.45;;;19.69;100.00
56681;BME280;42558;52.388;13.390;2023-08-21T02:17:40;101671.89;;;19.68;100.00
56681;BME280;42558;52.388;13.390;2023-08-21T02:20:12;101677.75;;;19.71;100.00
56681;BME280;42558;52.388;13.390;2023-08-21T02:22:42;101675.05;;;19.73;100.00
56681;BME280;42558;52.388;13.390;2023-08-21T02:25:12;101671.67;;;19.73;100.00
56681;BME280;42558;52.388;13.390;2023-08-21T02:27:42;101673.10;;;19.72;100.00
56681;BME280;42558;52.388;13.390;2023-08-21T02:30:12;101677.02;;;19.71;100.00
56681;BME280;42558;52.388;13.390;2023-08-21T02:32:42;101678.80;;;19.71;100.00
56681;BME280;42558;52.388;13.390;2023-08-21T02:35:12;101677.75;;;19.71;100.00
56681;BME280;42558;52.388;13.390;2023-08-21T02:37:42;101679.16;;;19.72;100.00
56681;BME280;42558;52.388;13.390;2023-08-21T02:40:15;101676.48;;;19.73;100.00
56681;BME280;42558;52.388;13.390;2023-08-21T02:42:45;101676.84;;;19.74;100.00
56681;BME280;42558;52.388;13.390;2023-08-21T02:45:14;101671.45;;;19.76;100.00
56681;BME280;42558;52.388;13.390;2023-08-21T02:47:45;101670.19;;;19.77;100.00
56681;BME280;42558;52.388;13.390;2023-08-21T02:50:15;101669.29;;;19.79;100.00
56681;BME280;42558;52.388;13.390;2023-08-21T02:52:45;101668.57;;;19.78;100.00
56681;BME280;42558;52.388;13.390;2023-08-21T02:55:16;101668.23;;;19.78;100.00
56681;BME280;42558;52.388;13.390;2023-08-21T02:57:46;101665.92;;;19.76;100.00
56681;BME280;42558;52.388;13.390;2023-08-21T03:00:16;101667.33;;;19.78;100.00
56681;BME280;42558;52.388;13.390;2023-08-21T03:02:46;101669.12;;;19.80;100.00
56681;BME280;42558;52.388;13.390;2023-08-21T03:05:16;101666.42;;;19.80;100.00
56681;BME280;42558;52.388;13.390;2023-08-21T03:07:46;101667.15;;;19.80;100.00
56681;BME280;42558;52.388;13.390;2023-08-21T03:10:17;101671.23;;;19.81;100.00
56681;BME280;42558;52.388;13.390;2023-08-21T03:12:47;101670.34;;;19.81;100.00
56681;BME280;42558;52.388;13.390;2023-08-21T03:15:17;101666.44;;;19.80;100.00
56681;BME280;42558;52.388;13.390;2023-08-21T03:17:47;101673.00;;;19.82;100.00
56681;BME280;42558;52.388;13.390;2023-08-21T03:20:17;101671.89;;;19.86;100.00
56681;BME280;42558;52.388;13.390;2023-08-21T03:22:47;101673.67;;;19.88;100.00
56681;BME280;42558;52.388;13.390;2023-08-21T03:25:17;101672.78;;;19.88;100.00
56681;BME280;42558;52.388;13.390;2023-08-21T03:27:45;101671.17;;;19.85;100.00
56681;BME280;42558;52.388;13.390;2023-08-21T03:30:17;101669.79;;;19.82;100.00
56681;BME280;42558;52.388;13.390;2023-08-21T03:32:45;101672.48;;;19.82;100.00
56681;BME280;42558;52.388;13.390;2023-08-21T03:35:14;101670.53;;;19.81;100.00
56681;BME280;42558;52.388;13.390;2023-08-21T03:37:42;101668.04;;;19.78;100.00
56681;BME280;42558;52.388;13.390;2023-08-21T03:40:15;101666.96;;;19.78;100.00
56681;BME280;42558;52.388;13.390;2023-08-21T03:42:45;101664.30;;;19.79;100.00
56681;BME280;42558;52.388;13.390;2023-08-21T03:45:15;101668.77;;;19.78;100.00
56681;BME280;42558;52.388;13.390;2023-08-21T03:47:45;101665.94;;;19.76;100.00
56681;BME280;42558;52.388;13.390;2023-08-21T03:50:15;101665.75;;;19.76;100.00
56681;BME280;42558;52.388;13.390;2023-08-21T03:52:45;101672.56;;;19.74;100.00
56681;BME280;42558;52.388;13.390;2023-08-21T03:55:15;101677.38;;;19.72;100.00
56681;BME280;42558;52.388;13.390;2023-08-21T03:57:44;101675.27;;;19.70;100.00
56681;BME280;42558;52.388;13.390;2023-08-21T04:00:14;101679.23;;;19.65;100.00
56681;BME280;42558;52.388;13.390;2023-08-21T04:02:44;101682.45;;;19.64;100.00
56681;BME280;42558;52.388;13.390;2023-08-21T04:05:14;101682.11;;;19.63;100.00
56681;BME280;42558;52.388;13.390;2023-08-21T04:07:44;101687.29;;;19.62;100.00
56681;BME280;42558;52.388;13.390;2023-08-21T04:10:14;101688.20;;;19.61;100.00
56681;BME280;42558;52.388;13.390;2023-08-21T04:12:45;101696.06;;;19.57;100.00
56681;BME280;42558;52.388;13.390;2023-08-21T04:15:15;101694.30;;;19.53;100.00
56681;BME280;42558;52.388;13.390;2023-08-21T04:17:45;101693.77;;;19.54;100.00
56681;BME280;42558;52.388;13.390;2023-08-21T04:20:15;101693.40;;;19.53;100.00
56681;BME280;42558;52.388;13.390;2023-08-21T04:22:45;101696.60;;;19.55;100.00
56681;BME280;42558;52.388;13.390;2023-08-21T04:25:15;101702.88;;;19.51;100.00
56681;BME280;42558;52.388;13.390;2023-08-21T04:27:45;101702.94;;;19.43;100.00
56681;BME280;42558;52.388;13.390;2023-08-21T04:30:15;101703.63;;;19.45;100.00
56681;BME280;42558;52.388;13.390;2023-08-21T04:32:46;101698.99;;;19.47;100.00
56681;BME280;42558;52.388;13.390;2023-08-21T04:35:16;101703.97;;;19.48;100.00
56681;BME280;42558;52.388;13.390;2023-08-21T04:37:47;101702.69;;;19.50;100.00
56681;BME280;42558;52.388;13.390;2023-08-21T04:40:17;101700.36;;;19.53;100.00
56681;BME280;42558;52.388;13.390;2023-08-21T04:42:50;101704.64;;;19.54;100.00
56681;BME280;42558;52.388;13.390;2023-08-21T04:45:20;101709.80;;;19.55;100.00
56681;BME280;42558;52.388;13.390;2023-08-21T04:47:50;101722.31;;;19.53;100.00
56681;BME280;42558;52.388;13.390;2023-08-21T04:50:20;101726.81;;;19.46;100.00
56681;BME280;42558;52.388;13.390;2023-08-21T04:52:50;101723.63;;;19.42;100.00
56681;BME280;42558;52.388;13.390;2023-08-21T04:55:19;101722.23;;;19.40;100.00
56681;BME280;42558;52.388;13.390;2023-08-21T04:57:50;101725.23;;;19.43;100.00
56681;BME280;42558;52.388;13.390;2023-08-21T05:00:20;101724.13;;;19.48;100.00
56681;BME280;42558;52.388;13.390;2023-08-21T05:02:50;101721.41;;;19.51;100.00
56681;BME280;42558;52.388;13.390;2023-08-21T05:05:20;101725.14;;;19.55;100.00
56681;BME280;42558;52.388;13.390;2023-08-21T05:07:51;101721.39;;;19.58;100.00
56681;BME280;42558;52.388;13.390;2023-08-21T05:10:21;101725.25;;;19.67;100.00
56681;BME280;42558;52.388;13.390;2023-08-21T05:12:51;101728.24;;;19.73;100.00
56681;BME280;42558;52.388;13.390;2023-08-21T05:15:21;101724.67;;;19.73;100.00
56681;BME280;42558;52.388;13.390;2023-08-21T05:17:51;101725.01;;;19.75;100.00
56681;BME280;42558;52.388;13.390;2023-08-21T05:20:21;101726.25;;;19.76;100.00
56681;BME280;42558;52.388;13.390;2023-08-21T05:22:51;101722.63;;;19.81;100.00
56681;BME280;42558;52.388;13.390;2023-08-21T05:25:19;101726.67;;;19.89;100.00
56681;BME280;42558;52.388;13.390;2023-08-21T05:27:47;101727.65;;;19.96;100.00
56681;BME280;42558;52.388;13.390;2023-08-21T05:30:16;101731.15;;;20.05;100.00
56681;BME280;42558;52.388;13.390;2023-08-21T05:32:44;101734.06;;;20.17;100.00
56681;BME280;42558;52.388;13.390;2023-08-21T05:35:13;101734.55;;;20.20;100.00
56681;BME280;42558;52.388;13.390;2023-08-21T05:37:41;101728.02;;;20.30;100.00
56681;BME280;42558;52.388;13.390;2023-08-21T05:40:11;101729.05;;;20.35;100.00
56681;BME280;42558;52.388;13.390;2023-08-21T05:42:41;101730.20;;;20.46;100.00
56681;BME280;42558;52.388;13.390;2023-08-21T05:45:09;101732.59;;;20.55;100.00
56681;BME280;42558;52.388;13.390;2023-08-21T05:47:38;101736.11;;;20.59;100.00
56681;BME280;42558;52.388;13.390;2023-08-21T05:50:07;101734.40;;;20.68;100.00
56681;BME280;42558;52.388;13.390;2023-08-21T05:52:34;101739.99;;;20.78;100.00
56681;BME280;42558;52.388;13.390;2023-08-21T05:55:05;101740.07;;;20.72;100.00
56681;BME280;42558;52.388;13.390;2023-08-21T05:57:35;101741.48;;;20.73;100.00
56681;BME280;42558;52.388;13.390;2023-08-21T06:00:06;101741.75;;;20.93;100.00
56681;BME280;42558;52.388;13.390;2023-08-21T06:02:40;101741.91;;;21.08;100.00
56681;BME280;42558;52.388;13.390;2023-08-21T06:05:12;101740.71;;;21.04;100.00
56681;BME280;42558;52.388;13.390;2023-08-21T06:07:42;101735.64;;;21.09;100.00
56681;BME280;42558;52.388;13.390;2023-08-21T06:10:12;101736.92;;;21.06;100.00
56681;BME280;42558;52.388;13.390;2023-08-21T06:12:42;101722.80;;;21.18;100.00
56681;BME280;42558;52.388;13.390;2023-08-21T06:15:12;101720.34;;;21.29;100.00
56681;BME280;42558;52.388;13.390;2023-08-21T06:17:42;101725.56;;;21.49;100.00
56681;BME280;42558;52.388;13.390;2023-08-21T06:20:15;101721.16;;;21.67;100.00
56681;BME280;42558;52.388;13.390;2023-08-21T06:22:45;101720.92;;;21.91;100.00
56681;BME280;42558;52.388;13.390;2023-08-21T06:25:15;101727.67;;;22.14;100.00
56681;BME280;42558;52.388;13.390;2023-08-21T06:27:46;101728.54;;;22.35;100.00
56681;BME280;42558;52.388;13.390;2023-08-21T06:30:27;101736.58;;;22.45;100.00
56681;BME280;42558;52.388;13.390;2023-08-21T06:32:57;101742.83;;;22.55;100.00
56681;BME280;42558;52.388;13.390;2023-08-21T06:35:27;101744.64;;;22.63;100.00
56681;BME280;42558;52.388;13.390;2023-08-21T06:37:57;101747.77;;;22.76;99.81
56681;BME280;42558;52.388;13.390;2023-08-21T06:40:28;101752.11;;;22.84;99.99
56681;BME280;42558;52.388;13.390;2023-08-21T06:42:57;101754.30;;;22.91;100.00
56681;BME280;42558;52.388;13.390;2023-08-21T06:45:28;101755.06;;;22.89;99.94
56681;BME280;42558;52.388;13.390;2023-08-21T06:48:00;101754.94;;;22.94;100.00
56681;BME280;42558;52.388;13.390;2023-08-21T06:50:31;101758.73;;;22.94;100.00
56681;BME280;42558;52.388;13.390;2023-08-21T06:52:59;101759.80;;;22.94;100.00
56681;BME280;42558;52.388;13.390;2023-08-21T06:55:27;101759.52;;;23.06;100.00
56681;BME280;42558;52.388;13.390;2023-08-21T06:57:56;101759.50;;;23.31;100.00
56681;BME280;42558;52.388;13.390;2023-08-21T07:00:24;101760.23;;;23.61;100.00
56681;BME280;42558;52.388;13.390;2023-08-21T07:02:52;101754.02;;;23.87;99.19
56681;BME280;42558;52.388;13.390;2023-08-21T07:05:21;101756.95;;;23.85;96.96
56681;BME280;42558;52.388;13.390;2023-08-21T07:07:50;101755.61;;;24.09;96.86
56681;BME280;42558;52.388;13.390;2023-08-21T07:10:18;101755.85;;;23.93;96.77
56681;BME280;42558;52.388;13.390;2023-08-21T07:12:46;101755.67;;;24.53;96.27
56681;BME280;42558;52.388;13.390;2023-08-21T07:15:15;101750.35;;;25.00;83.99
56681;BME280;42558;52.388;13.390;2023-08-21T07:17:43;101749.07;;;24.88;78.64
56681;BME280;42558;52.388;13.390;2023-08-21T07:20:11;101750.53;;;25.23;77.22
56681;BME280;42558;52.388;13.390;2023-08-21T07:22:40;101750.27;;;25.43;74.47
56681;BME280;42558;52.388;13.390;2023-08-21T07:25:08;101750.52;;;25.06;72.82
56681;BME280;42558;52.388;13.390;2023-08-21T07:27:37;101752.73;;;24.68;75.10
56681;BME280;42558;52.388;13.390;2023-08-21T07:30:07;101759.64;;;24.54;77.32
56681;BME280;42558;52.388;13.390;2023-08-21T07:32:34;101760.59;;;24.38;79.73
56681;BME280;42558;52.388;13.390;2023-08-21T07:35:03;101760.52;;;24.60;81.41
56681;BME280;42558;52.388;13.390;2023-08-21T07:37:31;101759.02;;;24.99;80.69
56681;BME280;42558;52.388;13.390;2023-08-21T07:39:59;101759.73;;;24.93;79.43
56681;BME280;42558;52.388;13.390;2023-08-21T07:42:28;101762.50;;;24.78;78.78
56681;BME280;42558;52.388;13.390;2023-08-21T07:44:56;101759.89;;;24.56;77.82
56681;BME280;42558;52.388;13.390;2023-08-21T07:47:27;101767.23;;;24.39;77.12
56681;BME280;42558;52.388;13.390;2023-08-21T07:49:57;101766.14;;;24.52;77.32
56681;BME280;42558;52.388;13.390;2023-08-21T07:52:27;101769.83;;;24.42;75.55
56681;BME280;42558;52.388;13.390;2023-08-21T07:54:57;101775.76;;;24.29;75.23
56681;BME280;42558;52.388;13.390;2023-08-21T07:57:30;101775.30;;;24.12;75.99
56681;BME280;42558;52.388;13.390;2023-08-21T07:59:59;101775.73;;;24.22;75.24
56681;BME280;42558;52.388;13.390;2023-08-21T08:02:29;101779.23;;;24.33;75.59
56681;BME280;42558;52.388;13.390;2023-08-21T08:04:58;101780.19;;;24.51;74.23
56681;BME280;42558;52.388;13.390;2023-08-21T08:07:28;101776.56;;;24.71;72.88
56681;BME280;42558;52.388;13.390;2023-08-21T08:09:58;101775.05;;;24.55;71.81
56681;BME280;42558;52.388;13.390;2023-08-21T08:12:28;101773.73;;;24.63;70.89
56681;BME280;42558;52.388;13.390;2023-08-21T08:14:58;101772.23;;;24.71;71.87
56681;BME280;42558;52.388;13.390;2023-08-21T08:17:28;101776.04;;;24.65;69.56
56681;BME280;42558;52.388;13.390;2023-08-21T08:19:58;101777.09;;;24.26;70.65
56681;BME280;42558;52.388;13.390;2023-08-21T08:22:27;101777.47;;;24.25;70.39
56681;BME280;42558;52.388;13.390;2023-08-21T08:24:57;101774.17;;;24.13;70.78
56681;BME280;42558;52.388;13.390;2023-08-21T08:27:27;101771.75;;;24.38;70.22
56681;BME280;42558;52.388;13.390;2023-08-21T08:29:57;101774.52;;;24.48;69.88
56681;BME280;42558;52.388;13.390;2023-08-21T08:32:27;101773.51;;;24.59;68.05
56681;BME280;42558;52.388;13.390;2023-08-21T08:34:57;101773.06;;;24.61;68.11
56681;BME280;42558;52.388;13.390;2023-08-21T08:37:27;101772.95;;;24.52;67.57
56681;BME280;42558;52.388;13.390;2023-08-21T08:39:57;101774.49;;;24.22;66.19
56681;BME280;42558;52.388;13.390;2023-08-21T08:42:27;101776.50;;;24.20;66.95
56681;BME280;42558;52.388;13.390;2023-08-21T08:45:02;101783.07;;;24.44;68.24
56681;BME280;42558;52.388;13.390;2023-08-21T08:47:33;101781.53;;;24.48;65.72
56681;BME280;42558;52.388;13.390;2023-08-21T08:50:06;101781.58;;;24.40;65.51
56681;BME280;42558;52.388;13.390;2023-08-21T08:52:37;101777.92;;;24.42;62.96
56681;BME280;42558;52.388;13.390;2023-08-21T08:55:06;101778.16;;;24.53;60.27
56681;BME280;42558;52.388;13.390;2023-08-21T08:57:36;101774.90;;;24.67;58.40
56681;BME280;42558;52.388;13.390;2023-08-21T09:00:08;101771.01;;;24.83;57.89
56681;BME280;42558;52.388;13.390;2023-08-21T09:02:37;101772.61;;;24.95;56.65
56681;BME280;42558;52.388;13.390;2023-08-21T09:05:08;101770.40;;;25.56;54.45
56681;BME280;42558;52.388;13.390;2023-08-21T09:07:39;101769.86;;;25.61;54.17
56681;BME280;42558;52.388;13.390;2023-08-21T09:10:15;101759.77;;;26.14;52.81
56681;BME280;42558;52.388;13.390;2023-08-21T09:12:47;101763.88;;;26.56;51.69
56681;BME280;42558;52.388;13.390;2023-08-21T09:15:16;101763.95;;;26.49;51.41
56681;BME280;42558;52.388;13.390;2023-08-21T09:17:53;101760.36;;;26.54;49.60
56681;BME280;42558;52.388;13.390;2023-08-21T09:20:22;101756.73;;;26.78;50.16
56681;BME280;42558;52.388;13.390;2023-08-21T09:22:55;101755.73;;;27.27;50.68
56681;BME280;42558;52.388;13.390;2023-08-21T09:25:25;101753.16;;;27.01;47.66
56681;BME280;42558;52.388;13.390;2023-08-21T09:27:56;101749.28;;;26.70;49.09
56681;BME280;42558;52.388;13.390;2023-08-21T09:30:25;101750.48;;;26.67;50.97
56681;BME280;42558;52.388;13.390;2023-08-21T09:32:58;101747.36;;;27.20;49.26
56681;BME280;42558;52.388;13.390;2023-08-21T09:35:33;101747.56;;;27.11;49.09
56681;BME280;42558;52.388;13.390;2023-08-21T09:38:02;101754.42;;;27.24;51.01
56681;BME280;42558;52.388;13.390;2023-08-21T09:40:32;101747.94;;;27.05;50.45
56681;BME280;42558;52.388;13.390;2023-08-21T09:43:03;101751.73;;;26.86;51.35
56681;BME280;42558;52.388;13.390;2023-08-21T09:45:33;101743.04;;;27.68;50.06
56681;BME280;42558;52.388;13.390;2023-08-21T09:48:04;101740.20;;;27.71;47.89
56681;BME280;42558;52.388;13.390;2023-08-21T09:50:35;101739.17;;;27.39;45.14
56681;BME280;42558;52.388;13.390;2023-08-21T09:53:06;101739.94;;;27.30;45.48
56681;BME280;42558;52.388;13.390;2023-08-21T09:55:35;101741.30;;;27.18;44.13
56681;BME280;42558;52.388;13.390;2023-08-21T09:58:06;101742.13;;;26.64;45.05
56681;BME280;42558;52.388;13.390;2023-08-21T10:00:37;101742.48;;;26.63;45.84
56681;BME280;42558;52.388;13.390;2023-08-21T10:03:08;101741.40;;;26.87;45.02
56681;BME280;42558;52.388;13.390;2023-08-21T10:05:39;101730.58;;;27.55;44.82
56681;BME280;42558;52.388;13.390;2023-08-21T10:08:09;101732.23;;;27.41;44.12
56681;BME280;42558;52.388;13.390;2023-08-21T10:10:40;101732.50;;;27.57;43.77
56681;BME280;42558;52.388;13.390;2023-08-21T10:13:11;101726.85;;;27.67;42.50
56681;BME280;42558;52.388;13.390;2023-08-21T10:15:42;101726.84;;;27.75;44.07
56681;BME280;42558;52.388;13.390;2023-08-21T10:18:44;101728.03;;;28.11;43.00
56681;BME280;42558;52.388;13.390;2023-08-21T10:21:13;101726.39;;;28.40;40.99
56681;BME280;42558;52.388;13.390;2023-08-21T10:23:48;101733.80;;;27.42;41.95
56681;BME280;42558;52.388;13.390;2023-08-21T10:26:22;101732.46;;;27.09;43.70
56681;BME280;42558;52.388;13.390;2023-08-21T10:29:01;101728.17;;;27.26;42.98
56681;BME280;42558;52.388;13.390;2023-08-21T10:31:39;101732.05;;;26.68;43.99
56681;BME280;42558;52.388;13.390;2023-08-21T10:34:12;101741.69;;;26.80;44.76
56681;BME280;42558;52.388;13.390;2023-08-21T10:39:26;101742.37;;;26.17;45.96
56681;BME280;42558;52.388;13.390;2023-08-21T10:42:00;101738.71;;;25.82;46.23
56681;BME280;42558;52.388;13.390;2023-08-21T10:44:46;101741.86;;;25.63;47.55
56681;BME280;42558;52.388;13.390;2023-08-21T10:49:59;101741.88;;;26.51;46.89
56681;BME280;42558;52.388;13.390;2023-08-21T10:52:29;101741.75;;;27.25;47.02
56681;BME280;42558;52.388;13.390;2023-08-21T10:55:00;101738.05;;;27.45;44.42
56681;BME280;42558;52.388;13.390;2023-08-21T10:57:30;101734.42;;;27.32;45.85
56681;BME280;42558;52.388;13.390;2023-08-21T11:00:10;101735.17;;;27.62;45.89
56681;BME280;42558;52.388;13.390;2023-08-21T11:02:44;101736.26;;;27.84;44.89
56681;BME280;42558;52.388;13.390;2023-08-21T11:05:16;101736.34;;;27.94;44.66
56681;BME280;42558;52.388;13.390;2023-08-21T11:07:48;101738.34;;;27.73;43.20
56681;BME280;42558;52.388;13.390;2023-08-21T11:10:23;101742.94;;;27.35;43.98
56681;BME280;42558;52.388;13.390;2023-08-21T11:12:56;101744.14;;;27.51;44.58
56681;BME280;42558;52.388;13.390;2023-08-21T11:15:28;101738.61;;;27.80;44.53
56681;BME280;42558;52.388;13.390;2023-08-21T11:18:01;101740.45;;;27.79;44.91
56681;BME280;42558;52.388;13.390;2023-08-21T11:20:35;101736.65;;;27.95;42.62
56681;BME280;42558;52.388;13.390;2023-08-21T11:23:06;101739.91;;;27.35;44.82
56681;BME280;42558;52.388;13.390;2023-08-21T11:25:39;101739.69;;;27.09;45.98
56681;BME280;42558;52.388;13.390;2023-08-21T11:28:09;101742.66;;;27.07;46.05
56681;BME280;42558;52.388;13.390;2023-08-21T11:30:38;101744.04;;;26.80;47.69
56681;BME280;42558;52.388;13.390;2023-08-21T11:33:13;101743.73;;;26.92;47.91
56681;BME280;42558;52.388;13.390;2023-08-21T11:35:42;101742.61;;;26.89;47.14
56681;BME280;42558;52.388;13.390;2023-08-21T11:38:18;101742.23;;;26.75;48.23
56681;BME280;42558;52.388;13.390;2023-08-21T11:40:58;101739.10;;;27.00;48.72
56681;BME280;42558;52.388;13.390;2023-08-21T11:43:41;101738.45;;;26.89;46.78
56681;BME280;42558;52.388;13.390;2023-08-21T11:46:11;101738.21;;;26.27;45.89
56681;BME280;42558;52.388;13.390;2023-08-21T11:48:41;101737.13;;;26.28;48.08
56681;BME280;42558;52.388;13.390;2023-08-21T11:51:11;101735.52;;;26.52;47.34
56681;BME280;42558;52.388;13.390;2023-08-21T11:53:41;101730.58;;;26.64;47.78
56681;BME280;42558;52.388;13.390;2023-08-21T11:56:14;101731.95;;;26.71;46.91
56681;BME280;42558;52.388;13.390;2023-08-21T11:58:45;101727.74;;;26.57;46.19
56681;BME280;42558;52.388;13.390;2023-08-21T12:01:21;101729.73;;;26.72;45.62
56681;BME280;42558;52.388;13.390;2023-08-21T12:03:50;101718.52;;;26.53;43.56
56681;BME280;42558;52.388;13.390;2023-08-21T12:06:24;101727.14;;;26.97;45.64
56681;BME280;42558;52.388;13.390;2023-08-21T12:08:54;101727.45;;;27.17;44.52
56681;BME280;42558;52.388;13.390;2023-08-21T12:11:25;101733.27;;;27.16;44.75
56681;BME280;42558;52.388;13.390;2023-08-21T12:13:55;101728.20;;;27.16;45.21
56681;BME280;42558;52.388;13.390;2023-08-21T12:16:25;101726.48;;;27.19;44.37
56681;BME280;42558;52.388;13.390;2023-08-21T12:18:55;101731.12;;;27.42;42.80
56681;BME280;42558;52.388;13.390;2023-08-21T12:21:26;101737.60;;;27.02;42.94
56681;BME280;42558;52.388;13.390;2023-08-21T12:23:56;101735.23;;;26.98;42.68
56681;BME280;42558;52.388;13.390;2023-08-21T12:26:26;101735.34;;;27.05;43.96
56681;BME280;42558;52.388;13.390;2023-08-21T12:29:05;101737.51;;;26.76;44.31
56681;BME280;42558;52.388;13.390;2023-08-21T12:31:35;101736.38;;;26.63;44.52
56681;BME280;42558;52.388;13.390;2023-08-21T12:34:04;101734.02;;;26.68;44.84
56681;BME280;42558;52.388;13.390;2023-08-21T12:36:35;101733.11;;;26.78;44.41
56681;BME280;42558;52.388;13.390;2023-08-21T12:39:08;101734.61;;;26.81;45.99
56681;BME280;42558;52.388;13.390;2023-08-21T12:41:38;101730.71;;;26.74;47.12
56681;BME280;42558;52.388;13.390;2023-08-21T12:44:09;101730.63;;;26.58;49.15
56681;BME280;42558;52.388;13.390;2023-08-21T12:46:39;101730.25;;;26.77;47.86
56681;BME280;42558;52.388;13.390;2023-08-21T12:49:09;101725.54;;;26.78;46.36
56681;BME280;42558;52.388;13.390;2023-08-21T12:51:39;101726.32;;;26.62;46.27
56681;BME280;42558;52.388;13.390;2023-08-21T12:54:09;101730.39;;;26.59;46.74
56681;BME280;42558;52.388;13.390;2023-08-21T12:56:39;101735.21;;;26.65;45.78
56681;BME280;42558;52.388;13.390;2023-08-21T12:59:09;101732.71;;;26.55;46.05
56681;BME280;42558;52.388;13.390;2023-08-21T13:01:40;101730.55;;;26.46;46.70